Portada
METAR-TAF:

METAR-TAF

Aeroports :

Luxeuil-les-Bains, França

latitud: 47-47N, longitud: 006-21E, altitud: 278 m

Observació

L'informe es va fer fa 27 minuts, a les 13:30 UTC
Vent 9 kt del Nord-Est, variant entre Nord i Est
Temperatura 12°C
Humitat 22%
Pressió 1022 hPa
Visibilitat 10 km o més
sense núvols per sota de 1500 mi sense presència de cumulonimbus.

METAR: LFSX 311330Z AUTO 04009KT 350V090 CAVOK 12/M09 Q1022

Hora: 15:57 (13:57 UTC)

Pronòstic

L'informe es va fer fa 5 hores i 57 minuts, a les 08:00 UTC
Pronòstic vàlid del 31 a les 09 UTC al 01 a les 09 UTC
Vent 5 kt del Est/Nord-Est
Visibilitat 10 km o més
sense núvols per sota de 1500 mi sense presència de cumulonimbus.
Temporalment
l' 31 a les 09 UTC al 31 a les 18 UTC
Vent 15 kt del Est/Nord-Est

TAF: LFSX 310800Z 3109/0109 07005KT CAVOK TEMPO 3109/3118 07015KT

Observacions i pronòstics meteorològics de més de 4000 aeroports (METAR i TAF).

Les estacions disponibles són els punts grocs i vermells al mapa.

Posi el ratolí al punt desitjat per veure el nom de l'estació.

Feu clic per veure les observacions i els pronòstics meteorològics.

Per canviar el mapa: feu clic els botons verds amb una creu de color negre per apropar; al botó verd amb un guió per allunyar la imatge; o en les fletxes verdes per a mapes adjacents.


METAR-TAF: